Home   Weather   USA   Los Angeles   Past weeks
Flag for USA

Past Weather in Los Angeles, California, USA — August 2014

Currently: 79 °F. Warm. (Weather station: Hawthorne Municipal Airport, USA). See more current weather

August 2014 Weather in Los Angeles — Graph

°F

High & Low Weather Summary for August 2014

 TemperatureHumidityPressure
High86 °F (Aug 27, 12:53 pm)94% (Aug 1, 5:03 am)30.06 "Hg (Aug 1, 5:03 am)
Low64 °F (Aug 5, 3:53 am)18% (Aug 28, 4:53 pm)29.74 "Hg (Aug 30, 5:53 pm)
Average72 °F73%29.92 "Hg
* Reported Aug 1 12:53 am — Aug 31 11:53 pm, Los Angeles. Weather by CustomWeather, © 2024

Note: Actual official high and low records may vary slightly from our data, if they occured in-between our weather recording intervals... More about our weather records

Los Angeles Weather History for August 1, 2014

Scroll right to see more
 ConditionsComfort  
Time TempWeatherWind HumidityBarometerVisibility
12:53 am
Fri, Aug 1
68 °FClear.No wind84%29.92 "Hg10 mi
1:53 am68 °FClear.No wind84%29.91 "Hg10 mi
2:53 am68 °FClear.No wind84%29.90 "Hg10 mi
3:53 am68 °FClear.5 mph87%29.90 "Hg10 mi
4:53 am67 °FPassing clouds.No wind90%29.91 "Hg10 mi
5:03 am66 °FPassing clouds.No wind94%29.91 "Hg10 mi
5:53 am68 °FOvercast.No wind84%29.91 "Hg10 mi
6:53 am69 °FOvercast.No wind81%29.91 "Hg9 mi
7:53 am70 °FPartly sunny.5 mph79%29.92 "Hg9 mi
8:53 am73 °FPassing clouds.5 mph71%29.93 "Hg10 mi
9:53 am75 °FSunny.3 mph66%29.92 "Hg10 mi
10:53 am76 °FSunny.8 mph67%29.92 "Hg10 mi
11:53 am78 °FSunny.7 mph62%29.91 "Hg10 mi
12:53 pm78 °FSunny.10 mph62%29.90 "Hg10 mi
1:53 pm77 °FSunny.10 mph66%29.89 "Hg10 mi
2:53 pm78 °FSunny.10 mph64%29.88 "Hg10 mi
3:53 pm76 °FSunny.10 mph69%29.88 "Hg10 mi
4:53 pm76 °FSunny.13 mph69%29.87 "Hg10 mi
5:53 pm73 °FSunny.10 mph74%29.87 "Hg10 mi
6:53 pm73 °FSunny.7 mph74%29.86 "Hg10 mi
7:53 pm71 °FSunny.9 mph78%29.86 "Hg10 mi
8:53 pm69 °FPartly sunny.8 mph84%29.88 "Hg10 mi
9:53 pm68 °FLow clouds.6 mph87%29.90 "Hg9 mi
10:53 pm67 °FLow clouds.6 mph90%29.90 "Hg7 mi
11:53 pm66 °FLow clouds.5 mph93%29.90 "Hg8 mi
Weather by CustomWeather, © 2024

See weather overview